sensor_id;sensor_type;location;lat;lon;timestamp;P1;durP1;ratioP1;P2;durP2;ratioP2
82635;SDS011;72317;37.280;-121.948;2023-09-19T00:00:16;3.22;;;2.40;;
82635;SDS011;72317;37.280;-121.948;2023-09-19T00:02:45;4.05;;;2.60;;
82635;SDS011;72317;37.280;-121.948;2023-09-19T00:05:17;3.60;;;2.53;;
82635;SDS011;72317;37.280;-121.948;2023-09-19T00:07:43;5.18;;;2.10;;
82635;SDS011;72317;37.280;-121.948;2023-09-19T00:10:10;3.75;;;2.40;;
82635;SDS011;72317;37.280;-121.948;2023-09-19T00:12:36;4.15;;;2.20;;
82635;SDS011;72317;37.280;-121.948;2023-09-19T00:15:03;3.50;;;2.28;;
82635;SDS011;72317;37.280;-121.948;2023-09-19T00:17:29;3.58;;;2.25;;
82635;SDS011;72317;37.280;-121.948;2023-09-19T00:19:57;3.53;;;2.40;;
82635;SDS011;72317;37.280;-121.948;2023-09-19T00:22:23;5.22;;;2.20;;
82635;SDS011;72317;37.280;-121.948;2023-09-19T00:24:51;3.97;;;2.60;;
82635;SDS011;72317;37.280;-121.948;2023-09-19T00:27:18;4.55;;;2.25;;
82635;SDS011;72317;37.280;-121.948;2023-09-19T00:29:45;2.97;;;2.58;;
82635;SDS011;72317;37.280;-121.948;2023-09-19T00:32:11;4.85;;;2.40;;
82635;SDS011;72317;37.280;-121.948;2023-09-19T00:34:37;3.33;;;2.22;;
82635;SDS011;72317;37.280;-121.948;2023-09-19T00:37:03;4.65;;;2.58;;
82635;SDS011;72317;37.280;-121.948;2023-09-19T00:39:29;3.78;;;2.50;;
82635;SDS011;72317;37.280;-121.948;2023-09-19T00:41:57;3.25;;;2.50;;
82635;SDS011;72317;37.280;-121.948;2023-09-19T00:44:23;3.72;;;2.35;;
82635;SDS011;72317;37.280;-121.948;2023-09-19T00:47:09;4.97;;;2.50;;
82635;SDS011;72317;37.280;-121.948;2023-09-19T00:49:40;3.67;;;2.55;;
82635;SDS011;72317;37.280;-121.948;2023-09-19T00:52:07;4.28;;;2.50;;
82635;SDS011;72317;37.280;-121.948;2023-09-19T00:54:35;3.80;;;2.67;;
82635;SDS011;72317;37.280;-121.948;2023-09-19T00:57:02;3.40;;;2.58;;
82635;SDS011;72317;37.280;-121.948;2023-09-19T00:59:28;4.78;;;2.60;;
82635;SDS011;72317;37.280;-121.948;2023-09-19T01:01:56;3.72;;;2.42;;
82635;SDS011;72317;37.280;-121.948;2023-09-19T01:04:22;4.97;;;2.92;;
82635;SDS011;72317;37.280;-121.948;2023-09-19T01:06:49;3.65;;;2.60;;
82635;SDS011;72317;37.280;-121.948;2023-09-19T01:09:19;4.82;;;2.78;;
82635;SDS011;72317;37.280;-121.948;2023-09-19T01:11:47;5.60;;;2.72;;
82635;SDS011;72317;37.280;-121.948;2023-09-19T01:17:20;4.00;;;2.75;;
82635;SDS011;72317;37.280;-121.948;2023-09-19T01:25:20;7.15;;;3.10;;
82635;SDS011;72317;37.280;-121.948;2023-09-19T01:28:32;4.40;;;3.05;;
82635;SDS011;72317;37.280;-121.948;2023-09-19T01:31:11;3.67;;;2.70;;
82635;SDS011;72317;37.280;-121.948;2023-09-19T01:33:58;4.55;;;2.95;;
82635;SDS011;72317;37.280;-121.948;2023-09-19T01:36:27;5.38;;;3.20;;
82635;SDS011;72317;37.280;-121.948;2023-09-19T01:39:07;3.35;;;2.92;;
82635;SDS011;72317;37.280;-121.948;2023-09-19T01:41:47;4.45;;;3.00;;
82635;SDS011;72317;37.280;-121.948;2023-09-19T01:47:33;4.32;;;2.70;;
82635;SDS011;72317;37.280;-121.948;2023-09-19T01:52:54;5.10;;;2.90;;
82635;SDS011;72317;37.280;-121.948;2023-09-19T01:55:29;5.10;;;2.97;;
82635;SDS011;72317;37.280;-121.948;2023-09-19T01:58:08;5.03;;;3.00;;
82635;SDS011;72317;37.280;-121.948;2023-09-19T02:00:54;4.18;;;3.00;;
82635;SDS011;72317;37.280;-121.948;2023-09-19T02:03:24;11.77;;;3.08;;
82635;SDS011;72317;37.280;-121.948;2023-09-19T02:05:54;6.47;;;3.00;;
82635;SDS011;72317;37.280;-121.948;2023-09-19T02:08:21;4.93;;;3.00;;
82635;SDS011;72317;37.280;-121.948;2023-09-19T02:10:51;5.88;;;3.00;;
82635;SDS011;72317;37.280;-121.948;2023-09-19T02:13:18;5.22;;;3.00;;
82635;SDS011;72317;37.280;-121.948;2023-09-19T02:15:46;5.43;;;3.58;;
82635;SDS011;72317;37.280;-121.948;2023-09-19T02:18:13;5.22;;;3.17;;
82635;SDS011;72317;37.280;-121.948;2023-09-19T02:20:40;4.78;;;3.50;;
82635;SDS011;72317;37.280;-121.948;2023-09-19T02:23:06;3.47;;;3.03;;
82635;SDS011;72317;37.280;-121.948;2023-09-19T02:25:33;6.05;;;3.20;;
82635;SDS011;72317;37.280;-121.948;2023-09-19T02:28:00;6.97;;;3.22;;
82635;SDS011;72317;37.280;-121.948;2023-09-19T02:30:29;5.65;;;3.42;;
82635;SDS011;72317;37.280;-121.948;2023-09-19T02:32:55;6.38;;;3.55;;
82635;SDS011;72317;37.280;-121.948;2023-09-19T02:35:22;5.03;;;3.08;;
82635;SDS011;72317;37.280;-121.948;2023-09-19T02:37:48;5.18;;;3.42;;
82635;SDS011;72317;37.280;-121.948;2023-09-19T02:40:15;3.83;;;2.85;;
82635;SDS011;72317;37.280;-121.948;2023-09-19T02:42:47;4.85;;;3.20;;
82635;SDS011;72317;37.280;-121.948;2023-09-19T02:45:15;5.55;;;3.45;;
82635;SDS011;72317;37.280;-121.948;2023-09-19T02:47:45;4.65;;;3.10;;
82635;SDS011;72317;37.280;-121.948;2023-09-19T02:50:12;3.35;;;2.70;;
82635;SDS011;72317;37.280;-121.948;2023-09-19T02:52:44;7.00;;;3.03;;
82635;SDS011;72317;37.280;-121.948;2023-09-19T02:55:15;4.40;;;2.67;;
82635;SDS011;72317;37.280;-121.948;2023-09-19T02:57:50;4.82;;;2.88;;
82635;SDS011;72317;37.280;-121.948;2023-09-19T03:00:20;5.20;;;2.80;;
82635;SDS011;72317;37.280;-121.948;2023-09-19T03:02:50;6.93;;;3.45;;
82635;SDS011;72317;37.280;-121.948;2023-09-19T03:05:19;3.22;;;2.58;;
82635;SDS011;72317;37.280;-121.948;2023-09-19T03:07:49;5.53;;;3.30;;
82635;SDS011;72317;37.280;-121.948;2023-09-19T03:10:19;4.53;;;2.60;;
82635;SDS011;72317;37.280;-121.948;2023-09-19T03:12:48;3.42;;;2.72;;
82635;SDS011;72317;37.280;-121.948;2023-09-19T03:15:15;4.90;;;2.88;;
82635;SDS011;72317;37.280;-121.948;2023-09-19T03:17:43;3.72;;;2.60;;
82635;SDS011;72317;37.280;-121.948;2023-09-19T03:20:10;3.30;;;2.67;;
82635;SDS011;72317;37.280;-121.948;2023-09-19T03:22:38;5.47;;;2.67;;
82635;SDS011;72317;37.280;-121.948;2023-09-19T03:25:05;2.75;;;2.15;;
82635;SDS011;72317;37.280;-121.948;2023-09-19T03:27:35;4.60;;;2.60;;
82635;SDS011;72317;37.280;-121.948;2023-09-19T03:30:02;3.70;;;2.70;;
82635;SDS011;72317;37.280;-121.948;2023-09-19T03:32:37;5.45;;;2.65;;
82635;SDS011;72317;37.280;-121.948;2023-09-19T03:35:09;3.08;;;2.40;;
82635;SDS011;72317;37.280;-121.948;2023-09-19T03:37:39;4.72;;;2.70;;
82635;SDS011;72317;37.280;-121.948;2023-09-19T03:40:08;5.82;;;3.00;;
82635;SDS011;72317;37.280;-121.948;2023-09-19T03:42:39;5.35;;;2.88;;
82635;SDS011;72317;37.280;-121.948;2023-09-19T03:45:06;5.57;;;2.63;;
82635;SDS011;72317;37.280;-121.948;2023-09-19T03:47:37;4.45;;;2.70;;
82635;SDS011;72317;37.280;-121.948;2023-09-19T03:50:05;3.67;;;2.75;;
82635;SDS011;72317;37.280;-121.948;2023-09-19T03:52:33;4.00;;;2.65;;
82635;SDS011;72317;37.280;-121.948;2023-09-19T03:55:00;5.00;;;2.80;;
82635;SDS011;72317;37.280;-121.948;2023-09-19T03:57:27;3.40;;;2.63;;
82635;SDS011;72317;37.280;-121.948;2023-09-19T03:59:54;5.55;;;2.63;;
82635;SDS011;72317;37.280;-121.948;2023-09-19T04:02:21;4.55;;;2.70;;
82635;SDS011;72317;37.280;-121.948;2023-09-19T04:04:51;4.65;;;3.00;;
82635;SDS011;72317;37.280;-121.948;2023-09-19T04:07:17;3.42;;;2.40;;
82635;SDS011;72317;37.280;-121.948;2023-09-19T04:09:48;4.88;;;2.85;;
82635;SDS011;72317;37.280;-121.948;2023-09-19T04:12:14;3.85;;;2.47;;
82635;SDS011;72317;37.280;-121.948;2023-09-19T04:14:44;3.45;;;2.45;;
82635;SDS011;72317;37.280;-121.948;2023-09-19T04:17:10;4.55;;;2.70;;
82635;SDS011;72317;37.280;-121.948;2023-09-19T04:19:36;4.18;;;2.92;;
82635;SDS011;72317;37.280;-121.948;2023-09-19T04:22:03;6.05;;;3.05;;
82635;SDS011;72317;37.280;-121.948;2023-09-19T04:24:29;4.28;;;2.90;;
82635;SDS011;72317;37.280;-121.948;2023-09-19T04:26:57;3.45;;;2.78;;
82635;SDS011;72317;37.280;-121.948;2023-09-19T04:29:24;4.13;;;2.90;;
82635;SDS011;72317;37.280;-121.948;2023-09-19T04:31:51;3.85;;;2.90;;
82635;SDS011;72317;37.280;-121.948;2023-09-19T04:34:18;4.15;;;2.83;;
82635;SDS011;72317;37.280;-121.948;2023-09-19T04:36:44;7.78;;;3.03;;
82635;SDS011;72317;37.280;-121.948;2023-09-19T04:39:10;3.83;;;2.92;;
82635;SDS011;72317;37.280;-121.948;2023-09-19T04:41:38;5.45;;;3.28;;
82635;SDS011;72317;37.280;-121.948;2023-09-19T04:44:07;4.50;;;2.92;;
82635;SDS011;72317;37.280;-121.948;2023-09-19T04:46:33;5.28;;;3.13;;
82635;SDS011;72317;37.280;-121.948;2023-09-19T04:49:00;4.32;;;3.47;;
82635;SDS011;72317;37.280;-121.948;2023-09-19T04:51:27;3.58;;;3.00;;
82635;SDS011;72317;37.280;-121.948;2023-09-19T04:53:58;5.45;;;3.38;;
82635;SDS011;72317;37.280;-121.948;2023-09-19T04:56:24;5.47;;;3.13;;
82635;SDS011;72317;37.280;-121.948;2023-09-19T04:58:50;4.43;;;3.08;;
82635;SDS011;72317;37.280;-121.948;2023-09-19T05:01:16;4.95;;;3.40;;
82635;SDS011;72317;37.280;-121.948;2023-09-19T05:03:42;4.80;;;3.42;;
82635;SDS011;72317;37.280;-121.948;2023-09-19T05:06:10;5.20;;;3.45;;
82635;SDS011;72317;37.280;-121.948;2023-09-19T05:08:36;5.32;;;3.13;;
82635;SDS011;72317;37.280;-121.948;2023-09-19T05:11:03;5.40;;;3.63;;
82635;SDS011;72317;37.280;-121.948;2023-09-19T05:13:31;4.72;;;3.55;;
82635;SDS011;72317;37.280;-121.948;2023-09-19T05:15:59;5.25;;;3.35;;
82635;SDS011;72317;37.280;-121.948;2023-09-19T05:18:28;7.03;;;3.70;;
82635;SDS011;72317;37.280;-121.948;2023-09-19T05:20:55;6.63;;;3.58;;
82635;SDS011;72317;37.280;-121.948;2023-09-19T05:23:21;5.55;;;3.60;;
82635;SDS011;72317;37.280;-121.948;2023-09-19T05:25:47;4.10;;;3.45;;
82635;SDS011;72317;37.280;-121.948;2023-09-19T05:28:13;6.28;;;3.70;;
82635;SDS011;72317;37.280;-121.948;2023-09-19T05:30:40;5.70;;;3.70;;
82635;SDS011;72317;37.280;-121.948;2023-09-19T05:33:08;5.40;;;3.30;;
82635;SDS011;72317;37.280;-121.948;2023-09-19T05:35:35;4.68;;;3.30;;
82635;SDS011;72317;37.280;-121.948;2023-09-19T05:38:07;5.15;;;3.20;;
82635;SDS011;72317;37.280;-121.948;2023-09-19T05:40:38;4.47;;;3.00;;
82635;SDS011;72317;37.280;-121.948;2023-09-19T05:43:07;4.95;;;3.35;;
82635;SDS011;72317;37.280;-121.948;2023-09-19T05:45:34;5.53;;;3.40;;
82635;SDS011;72317;37.280;-121.948;2023-09-19T05:48:08;5.90;;;3.22;;
82635;SDS011;72317;37.280;-121.948;2023-09-19T05:50:36;5.13;;;3.08;;
82635;SDS011;72317;37.280;-121.948;2023-09-19T05:53:03;3.95;;;3.20;;
82635;SDS011;72317;37.280;-121.948;2023-09-19T05:55:30;4.95;;;3.20;;
82635;SDS011;72317;37.280;-121.948;2023-09-19T05:57:56;5.10;;;3.15;;
82635;SDS011;72317;37.280;-121.948;2023-09-19T06:00:23;5.38;;;3.42;;
82635;SDS011;72317;37.280;-121.948;2023-09-19T06:02:55;4.05;;;3.28;;
82635;SDS011;72317;37.280;-121.948;2023-09-19T06:05:24;4.60;;;3.60;;
82635;SDS011;72317;37.280;-121.948;2023-09-19T06:07:57;5.70;;;4.28;;
82635;SDS011;72317;37.280;-121.948;2023-09-19T06:10:33;6.47;;;4.75;;
82635;SDS011;72317;37.280;-121.948;2023-09-19T06:13:01;6.93;;;5.18;;
82635;SDS011;72317;37.280;-121.948;2023-09-19T06:15:31;7.22;;;4.80;;
82635;SDS011;72317;37.280;-121.948;2023-09-19T06:17:58;6.70;;;5.07;;
82635;SDS011;72317;37.280;-121.948;2023-09-19T06:20:25;8.60;;;5.13;;
82635;SDS011;72317;37.280;-121.948;2023-09-19T06:22:52;7.22;;;5.20;;
82635;SDS011;72317;37.280;-121.948;2023-09-19T06:25:19;6.95;;;5.07;;
82635;SDS011;72317;37.280;-121.948;2023-09-19T06:27:49;6.10;;;4.70;;
82635;SDS011;72317;37.280;-121.948;2023-09-19T06:30:17;7.03;;;4.82;;
82635;SDS011;72317;37.280;-121.948;2023-09-19T06:32:44;8.07;;;4.78;;
82635;SDS011;72317;37.280;-121.948;2023-09-19T06:35:11;6.25;;;5.05;;
82635;SDS011;72317;37.280;-121.948;2023-09-19T06:37:38;6.93;;;4.80;;
82635;SDS011;72317;37.280;-121.948;2023-09-19T06:40:11;6.15;;;4.78;;
82635;SDS011;72317;37.280;-121.948;2023-09-19T06:42:45;6.22;;;4.75;;
82635;SDS011;72317;37.280;-121.948;2023-09-19T06:45:14;6.68;;;4.95;;
82635;SDS011;72317;37.280;-121.948;2023-09-19T06:47:45;7.13;;;4.78;;
82635;SDS011;72317;37.280;-121.948;2023-09-19T06:50:14;5.15;;;4.57;;
82635;SDS011;72317;37.280;-121.948;2023-09-19T06:52:44;7.00;;;4.70;;
82635;SDS011;72317;37.280;-121.948;2023-09-19T06:55:13;7.38;;;4.65;;
82635;SDS011;72317;37.280;-121.948;2023-09-19T06:57:44;6.63;;;4.95;;
82635;SDS011;72317;37.280;-121.948;2023-09-19T07:00:11;6.57;;;4.30;;
82635;SDS011;72317;37.280;-121.948;2023-09-19T07:03:23;6.15;;;4.63;;
82635;SDS011;72317;37.280;-121.948;2023-09-19T07:05:34;7.32;;;4.57;;
82635;SDS011;72317;37.280;-121.948;2023-09-19T07:08:04;6.22;;;4.35;;
82635;SDS011;72317;37.280;-121.948;2023-09-19T07:10:31;6.13;;;4.38;;
82635;SDS011;72317;37.280;-121.948;2023-09-19T07:13:05;5.32;;;4.10;;
82635;SDS011;72317;37.280;-121.948;2023-09-19T07:15:34;5.93;;;4.60;;
82635;SDS011;72317;37.280;-121.948;2023-09-19T07:18:04;6.65;;;4.85;;
82635;SDS011;72317;37.280;-121.948;2023-09-19T07:20:31;6.78;;;4.78;;
82635;SDS011;72317;37.280;-121.948;2023-09-19T07:22:59;6.57;;;5.20;;
82635;SDS011;72317;37.280;-121.948;2023-09-19T07:25:26;6.93;;;5.30;;
82635;SDS011;72317;37.280;-121.948;2023-09-19T07:27:54;8.20;;;5.35;;
82635;SDS011;72317;37.280;-121.948;2023-09-19T07:30:21;7.88;;;5.22;;
82635;SDS011;72317;37.280;-121.948;2023-09-19T07:32:48;8.98;;;5.32;;
82635;SDS011;72317;37.280;-121.948;2023-09-19T07:35:14;6.50;;;5.13;;
82635;SDS011;72317;37.280;-121.948;2023-09-19T07:37:41;6.03;;;4.05;;
82635;SDS011;72317;37.280;-121.948;2023-09-19T07:40:07;8.23;;;4.25;;
82635;SDS011;72317;37.280;-121.948;2023-09-19T07:42:37;4.30;;;3.50;;
82635;SDS011;72317;37.280;-121.948;2023-09-19T07:45:06;6.28;;;3.58;;
82635;SDS011;72317;37.280;-121.948;2023-09-19T07:47:33;4.47;;;3.83;;
82635;SDS011;72317;37.280;-121.948;2023-09-19T07:50:02;4.90;;;3.90;;
82635;SDS011;72317;37.280;-121.948;2023-09-19T07:52:28;4.85;;;3.55;;
82635;SDS011;72317;37.280;-121.948;2023-09-19T07:54:55;4.85;;;3.55;;
82635;SDS011;72317;37.280;-121.948;2023-09-19T07:57:22;5.47;;;3.72;;
82635;SDS011;72317;37.280;-121.948;2023-09-19T07:59:49;4.15;;;3.50;;
82635;SDS011;72317;37.280;-121.948;2023-09-19T08:02:15;4.00;;;3.30;;
82635;SDS011;72317;37.280;-121.948;2023-09-19T08:04:42;4.60;;;3.30;;
82635;SDS011;72317;37.280;-121.948;2023-09-19T08:07:08;4.88;;;3.60;;
82635;SDS011;72317;37.280;-121.948;2023-09-19T08:09:34;4.72;;;3.65;;
82635;SDS011;72317;37.280;-121.948;2023-09-19T08:12:05;5.93;;;3.50;;
82635;SDS011;72317;37.280;-121.948;2023-09-19T08:14:33;5.05;;;3.60;;
82635;SDS011;72317;37.280;-121.948;2023-09-19T08:16:59;4.00;;;3.33;;
82635;SDS011;72317;37.280;-121.948;2023-09-19T08:19:26;4.32;;;3.28;;
82635;SDS011;72317;37.280;-121.948;2023-09-19T08:21:56;5.57;;;3.88;;
82635;SDS011;72317;37.280;-121.948;2023-09-19T08:24:27;4.22;;;3.47;;
82635;SDS011;72317;37.280;-121.948;2023-09-19T08:26:54;3.40;;;3.10;;
82635;SDS011;72317;37.280;-121.948;2023-09-19T08:29:25;5.53;;;3.80;;
82635;SDS011;72317;37.280;-121.948;2023-09-19T08:31:55;5.43;;;3.33;;
82635;SDS011;72317;37.280;-121.948;2023-09-19T08:34:23;6.85;;;3.45;;
82635;SDS011;72317;37.280;-121.948;2023-09-19T08:36:53;4.47;;;3.20;;
82635;SDS011;72317;37.280;-121.948;2023-09-19T08:39:24;4.63;;;3.20;;
82635;SDS011;72317;37.280;-121.948;2023-09-19T08:41:57;3.75;;;2.90;;
82635;SDS011;72317;37.280;-121.948;2023-09-19T08:44:27;5.55;;;3.28;;
82635;SDS011;72317;37.280;-121.948;2023-09-19T08:47:09;3.92;;;2.95;;
82635;SDS011;72317;37.280;-121.948;2023-09-19T08:52:27;6.03;;;3.50;;
82635;SDS011;72317;37.280;-121.948;2023-09-19T08:55:02;3.60;;;3.10;;
82635;SDS011;72317;37.280;-121.948;2023-09-19T08:57:36;4.30;;;3.00;;
82635;SDS011;72317;37.280;-121.948;2023-09-19T09:00:07;4.75;;;2.83;;
82635;SDS011;72317;37.280;-121.948;2023-09-19T09:02:38;3.88;;;2.63;;
82635;SDS011;72317;37.280;-121.948;2023-09-19T09:05:08;3.88;;;3.28;;
82635;SDS011;72317;37.280;-121.948;2023-09-19T09:07:40;4.38;;;3.28;;
82635;SDS011;72317;37.280;-121.948;2023-09-19T09:10:06;3.80;;;2.85;;
82635;SDS011;72317;37.280;-121.948;2023-09-19T09:12:34;3.20;;;2.80;;
82635;SDS011;72317;37.280;-121.948;2023-09-19T09:15:06;5.35;;;2.97;;
82635;SDS011;72317;37.280;-121.948;2023-09-19T09:17:34;3.10;;;2.80;;
82635;SDS011;72317;37.280;-121.948;2023-09-19T09:20:00;4.35;;;2.67;;
82635;SDS011;72317;37.280;-121.948;2023-09-19T09:22:26;4.32;;;3.00;;
82635;SDS011;72317;37.280;-121.948;2023-09-19T09:24:53;3.33;;;2.70;;
82635;SDS011;72317;37.280;-121.948;2023-09-19T09:27:23;3.72;;;2.83;;
82635;SDS011;72317;37.280;-121.948;2023-09-19T09:29:50;4.40;;;3.08;;
82635;SDS011;72317;37.280;-121.948;2023-09-19T09:32:27;4.20;;;3.40;;
82635;SDS011;72317;37.280;-121.948;2023-09-19T09:34:55;4.55;;;3.08;;
82635;SDS011;72317;37.280;-121.948;2023-09-19T09:37:23;4.35;;;3.08;;
82635;SDS011;72317;37.280;-121.948;2023-09-19T09:39:52;3.85;;;2.78;;
82635;SDS011;72317;37.280;-121.948;2023-09-19T09:42:36;3.88;;;2.80;;
82635;SDS011;72317;37.280;-121.948;2023-09-19T09:47:45;4.15;;;3.10;;
82635;SDS011;72317;37.280;-121.948;2023-09-19T09:50:24;6.85;;;3.17;;
82635;SDS011;72317;37.280;-121.948;2023-09-19T09:53:01;5.28;;;3.15;;
82635;SDS011;72317;37.280;-121.948;2023-09-19T09:58:26;4.85;;;3.38;;
82635;SDS011;72317;37.280;-121.948;2023-09-19T10:00:57;4.68;;;3.20;;
82635;SDS011;72317;37.280;-121.948;2023-09-19T10:03:31;3.70;;;3.28;;
82635;SDS011;72317;37.280;-121.948;2023-09-19T10:06:08;4.88;;;3.85;;
82635;SDS011;72317;37.280;-121.948;2023-09-19T10:08:58;5.25;;;3.13;;
82635;SDS011;72317;37.280;-121.948;2023-09-19T10:11:46;4.53;;;3.40;;
82635;SDS011;72317;37.280;-121.948;2023-09-19T10:14:30;4.13;;;3.53;;
82635;SDS011;72317;37.280;-121.948;2023-09-19T10:17:18;3.92;;;3.50;;
82635;SDS011;72317;37.280;-121.948;2023-09-19T10:19:54;4.47;;;3.80;;
82635;SDS011;72317;37.280;-121.948;2023-09-19T10:22:23;5.68;;;3.35;;
82635;SDS011;72317;37.280;-121.948;2023-09-19T10:24:55;3.90;;;3.47;;
82635;SDS011;72317;37.280;-121.948;2023-09-19T10:27:24;6.18;;;3.38;;
82635;SDS011;72317;37.280;-121.948;2023-09-19T10:29:52;4.60;;;3.85;;
82635;SDS011;72317;37.280;-121.948;2023-09-19T10:32:25;5.32;;;3.58;;
82635;SDS011;72317;37.280;-121.948;2023-09-19T10:34:53;4.57;;;3.40;;
82635;SDS011;72317;37.280;-121.948;2023-09-19T10:37:21;5.15;;;3.38;;
82635;SDS011;72317;37.280;-121.948;2023-09-19T10:39:51;3.75;;;3.38;;
82635;SDS011;72317;37.280;-121.948;2023-09-19T10:42:19;4.47;;;3.60;;
82635;SDS011;72317;37.280;-121.948;2023-09-19T10:44:50;5.45;;;4.00;;
82635;SDS011;72317;37.280;-121.948;2023-09-19T10:47:20;5.47;;;3.70;;
82635;SDS011;72317;37.280;-121.948;2023-09-19T10:49:49;3.35;;;3.05;;
82635;SDS011;72317;37.280;-121.948;2023-09-19T10:52:17;5.07;;;3.30;;
82635;SDS011;72317;37.280;-121.948;2023-09-19T10:54:48;4.47;;;3.38;;
82635;SDS011;72317;37.280;-121.948;2023-09-19T10:57:22;5.88;;;3.63;;
82635;SDS011;72317;37.280;-121.948;2023-09-19T11:00:03;4.78;;;3.25;;
82635;SDS011;72317;37.280;-121.948;2023-09-19T11:03:15;3.90;;;3.50;;
82635;SDS011;72317;37.280;-121.948;2023-09-19T11:05:40;4.85;;;3.60;;
82635;SDS011;72317;37.280;-121.948;2023-09-19T11:08:07;4.68;;;3.75;;
82635;SDS011;72317;37.280;-121.948;2023-09-19T11:10:47;5.80;;;3.67;;
82635;SDS011;72317;37.280;-121.948;2023-09-19T11:27:10;7.78;;;3.72;;
82635;SDS011;72317;37.280;-121.948;2023-09-19T11:29:39;10.25;;;4.30;;
82635;SDS011;72317;37.280;-121.948;2023-09-19T11:32:05;7.22;;;3.78;;
82635;SDS011;72317;37.280;-121.948;2023-09-19T11:34:44;8.82;;;3.70;;
82635;SDS011;72317;37.280;-121.948;2023-09-19T11:39:40;4.88;;;3.30;;
82635;SDS011;72317;37.280;-121.948;2023-09-19T11:48:08;4.03;;;3.20;;
82635;SDS011;72317;37.280;-121.948;2023-09-19T11:50:38;4.00;;;3.60;;
82635;SDS011;72317;37.280;-121.948;2023-09-19T11:53:09;4.55;;;3.17;;
82635;SDS011;72317;37.280;-121.948;2023-09-19T11:55:39;5.10;;;3.70;;
82635;SDS011;72317;37.280;-121.948;2023-09-19T11:58:09;4.70;;;3.75;;
82635;SDS011;72317;37.280;-121.948;2023-09-19T12:00:39;6.70;;;3.78;;
82635;SDS011;72317;37.280;-121.948;2023-09-19T12:03:09;4.93;;;3.50;;
82635;SDS011;72317;37.280;-121.948;2023-09-19T12:05:36;4.38;;;3.55;;
82635;SDS011;72317;37.280;-121.948;2023-09-19T12:08:04;6.07;;;3.80;;
82635;SDS011;72317;37.280;-121.948;2023-09-19T12:10:54;4.40;;;3.83;;
82635;SDS011;72317;37.280;-121.948;2023-09-19T12:13:23;5.25;;;4.03;;
82635;SDS011;72317;37.280;-121.948;2023-09-19T12:15:49;4.32;;;3.85;;
82635;SDS011;72317;37.280;-121.948;2023-09-19T12:18:26;5.78;;;3.80;;
82635;SDS011;72317;37.280;-121.948;2023-09-19T12:20:56;4.55;;;4.13;;
82635;SDS011;72317;37.280;-121.948;2023-09-19T12:23:23;5.50;;;3.70;;
82635;SDS011;72317;37.280;-121.948;2023-09-19T12:25:51;4.95;;;3.95;;
82635;SDS011;72317;37.280;-121.948;2023-09-19T12:28:21;5.82;;;3.88;;
82635;SDS011;72317;37.280;-121.948;2023-09-19T12:30:52;6.07;;;4.10;;
82635;SDS011;72317;37.280;-121.948;2023-09-19T12:33:20;5.20;;;4.20;;
82635;SDS011;72317;37.280;-121.948;2023-09-19T12:35:51;5.03;;;3.92;;
82635;SDS011;72317;37.280;-121.948;2023-09-19T12:38:26;4.38;;;3.85;;
82635;SDS011;72317;37.280;-121.948;2023-09-19T12:41:01;6.03;;;4.60;;
82635;SDS011;72317;37.280;-121.948;2023-09-19T12:43:28;6.57;;;4.10;;
82635;SDS011;72317;37.280;-121.948;2023-09-19T12:45:58;5.68;;;4.10;;
82635;SDS011;72317;37.280;-121.948;2023-09-19T12:48:25;5.72;;;4.00;;
82635;SDS011;72317;37.280;-121.948;2023-09-19T12:51:09;5.32;;;4.38;;
82635;SDS011;72317;37.280;-121.948;2023-09-19T12:53:41;5.93;;;4.40;;
82635;SDS011;72317;37.280;-121.948;2023-09-19T12:56:11;5.18;;;4.68;;
82635;SDS011;72317;37.280;-121.948;2023-09-19T12:58:53;4.97;;;4.45;;
82635;SDS011;72317;37.280;-121.948;2023-09-19T13:01:31;6.47;;;4.60;;
82635;SDS011;72317;37.280;-121.948;2023-09-19T13:04:17;6.30;;;4.43;;
82635;SDS011;72317;37.280;-121.948;2023-09-19T13:06:48;5.28;;;4.32;;
82635;SDS011;72317;37.280;-121.948;2023-09-19T13:09:15;6.38;;;4.43;;
82635;SDS011;72317;37.280;-121.948;2023-09-19T13:11:43;4.93;;;4.05;;
82635;SDS011;72317;37.280;-121.948;2023-09-19T13:19:49;5.35;;;4.00;;
82635;SDS011;72317;37.280;-121.948;2023-09-19T13:25:22;7.35;;;4.32;;
82635;SDS011;72317;37.280;-121.948;2023-09-19T13:27:57;5.97;;;4.13;;
82635;SDS011;72317;37.280;-121.948;2023-09-19T13:30:28;5.32;;;4.07;;
82635;SDS011;72317;37.280;-121.948;2023-09-19T13:33:06;6.25;;;4.40;;
82635;SDS011;72317;37.280;-121.948;2023-09-19T13:35:35;6.22;;;4.05;;
82635;SDS011;72317;37.280;-121.948;2023-09-19T13:38:03;6.22;;;4.45;;
82635;SDS011;72317;37.280;-121.948;2023-09-19T13:40:29;6.80;;;5.00;;
82635;SDS011;72317;37.280;-121.948;2023-09-19T13:43:00;5.47;;;4.20;;
82635;SDS011;72317;37.280;-121.948;2023-09-19T13:45:27;6.15;;;4.07;;
82635;SDS011;72317;37.280;-121.948;2023-09-19T13:47:56;6.82;;;4.50;;
82635;SDS011;72317;37.280;-121.948;2023-09-19T13:50:23;7.70;;;5.15;;
82635;SDS011;72317;37.280;-121.948;2023-09-19T13:52:50;6.35;;;4.78;;
82635;SDS011;72317;37.280;-121.948;2023-09-19T13:55:17;5.32;;;4.30;;
82635;SDS011;72317;37.280;-121.948;2023-09-19T13:57:49;6.47;;;4.80;;
82635;SDS011;72317;37.280;-121.948;2023-09-19T14:00:17;6.18;;;4.65;;
82635;SDS011;72317;37.280;-121.948;2023-09-19T14:02:44;7.68;;;4.90;;
82635;SDS011;72317;37.280;-121.948;2023-09-19T14:05:11;5.55;;;4.80;;
82635;SDS011;72317;37.280;-121.948;2023-09-19T14:07:40;6.80;;;5.18;;
82635;SDS011;72317;37.280;-121.948;2023-09-19T14:10:07;6.38;;;5.40;;
82635;SDS011;72317;37.280;-121.948;2023-09-19T14:12:34;7.22;;;5.20;;
82635;SDS011;72317;37.280;-121.948;2023-09-19T14:15:00;6.47;;;4.93;;
82635;SDS011;72317;37.280;-121.948;2023-09-19T14:17:26;7.68;;;5.32;;
82635;SDS011;72317;37.280;-121.948;2023-09-19T14:19:53;7.70;;;5.38;;
82635;SDS011;72317;37.280;-121.948;2023-09-19T14:22:19;7.97;;;5.22;;
82635;SDS011;72317;37.280;-121.948;2023-09-19T14:24:45;10.25;;;5.20;;
82635;SDS011;72317;37.280;-121.948;2023-09-19T14:27:11;7.85;;;5.30;;
82635;SDS011;72317;37.280;-121.948;2023-09-19T14:29:37;7.18;;;4.90;;
82635;SDS011;72317;37.280;-121.948;2023-09-19T14:32:04;6.18;;;5.07;;
82635;SDS011;72317;37.280;-121.948;2023-09-19T14:34:31;8.70;;;5.43;;
82635;SDS011;72317;37.280;-121.948;2023-09-19T14:36:58;10.18;;;5.47;;
82635;SDS011;72317;37.280;-121.948;2023-09-19T14:39:24;6.53;;;5.30;;
82635;SDS011;72317;37.280;-121.948;2023-09-19T14:41:51;6.20;;;5.28;;
82635;SDS011;72317;37.280;-121.948;2023-09-19T14:44:17;5.88;;;5.28;;
82635;SDS011;72317;37.280;-121.948;2023-09-19T14:46:43;6.75;;;5.28;;
82635;SDS011;72317;37.280;-121.948;2023-09-19T14:49:10;7.15;;;5.22;;
82635;SDS011;72317;37.280;-121.948;2023-09-19T14:51:39;8.57;;;5.40;;
82635;SDS011;72317;37.280;-121.948;2023-09-19T14:54:05;7.93;;;5.72;;
82635;SDS011;72317;37.280;-121.948;2023-09-19T14:56:33;8.35;;;5.45;;
82635;SDS011;72317;37.280;-121.948;2023-09-19T14:58:59;7.60;;;5.68;;
82635;SDS011;72317;37.280;-121.948;2023-09-19T15:01:26;7.10;;;5.50;;
82635;SDS011;72317;37.280;-121.948;2023-09-19T15:03:52;7.75;;;5.68;;
82635;SDS011;72317;37.280;-121.948;2023-09-19T15:06:19;10.10;;;5.90;;
82635;SDS011;72317;37.280;-121.948;2023-09-19T15:08:46;8.43;;;5.80;;
82635;SDS011;72317;37.280;-121.948;2023-09-19T15:11:17;11.00;;;6.75;;
82635;SDS011;72317;37.280;-121.948;2023-09-19T15:13:44;8.30;;;6.07;;
82635;SDS011;72317;37.280;-121.948;2023-09-19T15:16:11;8.55;;;6.53;;